createdAt,value
2023-04-08T00:01:22.987Z,101305.69
2023-04-08T00:03:49.703Z,101304.81
2023-04-08T00:06:16.293Z,101315.25
2023-04-08T00:08:42.788Z,101308.31
2023-04-08T00:11:09.222Z,101312.66
2023-04-08T00:13:35.787Z,101313.50
2023-04-08T00:16:03.196Z,101317.00
2023-04-08T00:18:29.668Z,101307.44
2023-04-08T00:20:57.287Z,101319.63
2023-04-08T00:23:23.848Z,101311.78
2023-04-08T00:25:51.018Z,101311.78
2023-04-08T00:28:17.500Z,101310.03
2023-04-08T00:30:43.937Z,101309.19
2023-04-08T00:33:10.476Z,101318.75
2023-04-08T00:35:37.144Z,101310.91
2023-04-08T00:38:04.256Z,101310.03
2023-04-08T00:40:30.765Z,101311.78
2023-04-08T00:42:58.234Z,101310.03
2023-04-08T00:45:24.736Z,101310.03
2023-04-08T00:47:52.748Z,101315.25
2023-04-08T00:50:20.322Z,101319.59
2023-04-08T00:52:46.886Z,101323.09
2023-04-08T00:55:13.352Z,101312.66
2023-04-08T00:57:39.956Z,101312.66
2023-04-08T01:00:06.981Z,101317.00
2023-04-08T01:02:56.917Z,101317.88
2023-04-08T01:06:01.925Z,101324.81
2023-04-08T01:08:31.352Z,101324.81
2023-04-08T01:11:01.991Z,101323.97
2023-04-08T01:13:31.498Z,101330.94
2023-04-08T01:15:58.192Z,101332.63
2023-04-08T01:18:24.928Z,101328.28
2023-04-08T01:20:53.643Z,101330.03
2023-04-08T01:23:38.728Z,101327.44
2023-04-08T01:26:05.193Z,101324.81
2023-04-08T01:28:34.014Z,101331.78
2023-04-08T01:31:02.419Z,101332.66
2023-04-08T01:33:30.665Z,101333.53
2023-04-08T01:35:58.923Z,101342.22
2023-04-08T01:38:27.185Z,101342.22
2023-04-08T01:40:55.838Z,101341.34
2023-04-08T01:43:23.387Z,101333.50
2023-04-08T01:45:54.377Z,101334.38
2023-04-08T01:48:21.381Z,101337.03
2023-04-08T01:50:48.844Z,101329.19
2023-04-08T01:53:15.430Z,101327.41
2023-04-08T01:55:43.233Z,101336.16
2023-04-08T01:58:17.175Z,101332.66
2023-04-08T02:00:44.598Z,101329.16
2023-04-08T02:03:12.681Z,101331.81
2023-04-08T02:05:40.250Z,101337.03
2023-04-08T02:08:06.818Z,101337.00
2023-04-08T02:10:33.284Z,101330.03
2023-04-08T02:12:59.994Z,101331.78
2023-04-08T02:15:29.023Z,101330.03
2023-04-08T02:18:00.781Z,101340.50
2023-04-08T02:20:34.649Z,101342.22
2023-04-08T02:23:20.668Z,101338.72
2023-04-08T02:25:48.240Z,101343.06
2023-04-08T02:28:17.835Z,101335.28
2023-04-08T02:30:51.375Z,101340.50
2023-04-08T02:33:24.136Z,101339.63
2023-04-08T02:35:54.490Z,101334.38
2023-04-08T02:38:21.573Z,101344.81
2023-04-08T02:40:50.405Z,101337.00
2023-04-08T02:43:16.929Z,101342.22
2023-04-08T02:45:44.695Z,101343.09
2023-04-08T02:48:11.207Z,101341.34
2023-04-08T02:50:37.881Z,101344.81
2023-04-08T02:53:04.363Z,101342.22
2023-04-08T02:55:31.031Z,101347.44
2023-04-08T02:57:57.451Z,101355.25
2023-04-08T03:00:23.944Z,101350.91
2023-04-08T03:02:50.485Z,101353.53
2023-04-08T03:05:17.457Z,101351.78
2023-04-08T03:07:43.878Z,101357.00
2023-04-08T03:10:10.842Z,101361.31
2023-04-08T03:12:37.404Z,101362.19
2023-04-08T03:15:04.206Z,101351.75
2023-04-08T03:17:33.668Z,101353.50
2023-04-08T03:20:01.280Z,101353.50
2023-04-08T03:22:27.766Z,101352.59
2023-04-08T03:24:54.220Z,101359.56
2023-04-08T03:27:20.673Z,101363.91
2023-04-08T03:29:47.794Z,101357.84
2023-04-08T03:32:14.544Z,101362.22
2023-04-08T03:34:41.318Z,101356.09
2023-04-08T03:37:08.216Z,101362.19
2023-04-08T03:39:34.721Z,101357.84
2023-04-08T03:42:02.993Z,101356.97
2023-04-08T03:44:29.617Z,101365.66
2023-04-08T03:46:56.112Z,101360.44
2023-04-08T03:49:22.723Z,101360.44
2023-04-08T03:51:49.129Z,101368.25
2023-04-08T03:54:15.896Z,101364.78
2023-04-08T03:56:42.390Z,101370.88
2023-04-08T03:59:08.860Z,101361.28
2023-04-08T04:01:35.421Z,101370.84
2023-04-08T04:04:02.075Z,101361.28
2023-04-08T04:06:28.829Z,101363.91
2023-04-08T04:08:55.604Z,101370.84
2023-04-08T04:11:22.534Z,101365.63
2023-04-08T04:13:49.164Z,101370.84
2023-04-08T04:16:15.744Z,101366.47
2023-04-08T04:18:42.404Z,101374.31
2023-04-08T04:21:08.816Z,101369.09
2023-04-08T04:23:35.302Z,101371.69
2023-04-08T04:26:01.758Z,101382.13
2023-04-08T04:28:28.252Z,101380.38
2023-04-08T04:30:56.372Z,101383.84
2023-04-08T04:33:23.098Z,101391.69
2023-04-08T04:35:49.578Z,101391.69
2023-04-08T04:38:16.225Z,101397.72
2023-04-08T04:40:42.697Z,101396.00
2023-04-08T04:43:09.164Z,101403.81
2023-04-08T04:45:36.008Z,101403.84
2023-04-08T04:48:03.567Z,101402.06
2023-04-08T04:50:30.473Z,101404.69
2023-04-08T04:52:57.073Z,101410.78
2023-04-08T04:55:23.498Z,101406.41
2023-04-08T04:57:49.906Z,101402.97
2023-04-08T05:00:17.081Z,101400.38
2023-04-08T05:02:43.980Z,101397.72
2023-04-08T05:05:10.941Z,101398.59
2023-04-08T05:07:38.243Z,101401.16
2023-04-08T05:10:06.032Z,101400.31
2023-04-08T05:12:32.673Z,101407.25
2023-04-08T05:15:02.150Z,101409.84
2023-04-08T05:17:28.668Z,101409.81
2023-04-08T05:19:55.117Z,101405.47
2023-04-08T05:22:21.881Z,101417.59
2023-04-08T05:24:48.919Z,101415.81
2023-04-08T05:27:15.644Z,101429.75
2023-04-08T05:29:42.413Z,101433.19
2023-04-08T05:32:08.805Z,101425.38
2023-04-08T05:34:35.456Z,101437.56
2023-04-08T05:37:01.923Z,101430.63
2023-04-08T05:39:28.575Z,101427.97
2023-04-08T05:41:55.191Z,101433.19
2023-04-08T05:44:21.641Z,101434.03
2023-04-08T05:46:48.137Z,101445.31
2023-04-08T05:49:15.719Z,101442.69
2023-04-08T05:51:42.257Z,101443.53
2023-04-08T05:54:09.162Z,101456.63
2023-04-08T05:56:36.072Z,101451.41
2023-04-08T05:59:02.504Z,101459.22
2023-04-08T06:01:29.087Z,101460.13
2023-04-08T06:03:58.562Z,101463.63
2023-04-08T06:06:28.019Z,101461.00
2023-04-08T06:08:54.469Z,101460.13
2023-04-08T06:11:21.014Z,101460.16
2023-04-08T06:13:48.061Z,101466.19
2023-04-08T06:16:21.125Z,101468.81
2023-04-08T06:18:48.341Z,101466.22
2023-04-08T06:21:15.299Z,101465.38
2023-04-08T06:23:41.732Z,101475.78
2023-04-08T06:26:08.313Z,101483.59
2023-04-08T06:28:34.798Z,101475.78
2023-04-08T06:31:01.384Z,101486.25
2023-04-08T06:33:27.883Z,101481.03
2023-04-08T06:36:13.338Z,101487.13
2023-04-08T06:38:39.780Z,101490.63
2023-04-08T06:41:07.453Z,101492.38
2023-04-08T06:43:35.081Z,101495.00
2023-04-08T06:46:01.595Z,101492.38
2023-04-08T06:48:30.293Z,101487.16
2023-04-08T06:50:57.670Z,101497.56
2023-04-08T06:53:24.944Z,101493.22
2023-04-08T06:55:51.879Z,101499.34
2023-04-08T06:58:18.729Z,101496.69
2023-04-08T07:00:45.305Z,101508.88
2023-04-08T07:03:11.983Z,101504.44
2023-04-08T07:05:38.840Z,101505.38
2023-04-08T07:08:06.450Z,101508.88
2023-04-08T07:10:32.957Z,101513.28
2023-04-08T07:12:59.389Z,101515.03
2023-04-08T07:15:25.955Z,101515.03
2023-04-08T07:17:52.462Z,101521.97
2023-04-08T07:20:19.185Z,101516.81
2023-04-08T07:22:45.776Z,101521.16
2023-04-08T07:25:12.343Z,101522.03
2023-04-08T07:27:38.833Z,101527.25
2023-04-08T07:30:06.017Z,101530.72
2023-04-08T07:32:33.918Z,101532.47
2023-04-08T07:35:01.585Z,101536.81
2023-04-08T07:37:28.337Z,101533.31
2023-04-08T07:39:55.148Z,101538.59
2023-04-08T07:42:22.005Z,101542.03
2023-04-08T07:44:48.471Z,101541.13
2023-04-08T07:47:14.890Z,101547.22
2023-04-08T07:49:41.485Z,101548.91
2023-04-08T07:52:07.973Z,101556.78
2023-04-08T07:54:34.491Z,101555.97
2023-04-08T07:57:02.142Z,101560.31
2023-04-08T07:59:29.343Z,101553.31
2023-04-08T08:01:55.857Z,101562.91
2023-04-08T08:04:25.725Z,101569.88
2023-04-08T08:06:52.400Z,101567.31
2023-04-08T08:09:18.930Z,101572.56
2023-04-08T08:11:45.441Z,101570.84
2023-04-08T08:14:13.806Z,101576.88
2023-04-08T08:16:40.493Z,101577.78
2023-04-08T08:19:08.730Z,101583.00
2023-04-08T08:21:39.390Z,101593.44
2023-04-08T08:24:06.574Z,101595.19
2023-04-08T08:26:39.045Z,101597.78
2023-04-08T08:29:06.563Z,101595.19
2023-04-08T08:31:33.012Z,101601.28
2023-04-08T08:33:59.453Z,101616.94
2023-04-08T08:36:27.416Z,101607.34
2023-04-08T08:38:54.241Z,101608.22
2023-04-08T08:41:21.483Z,101604.75
2023-04-08T08:43:48.880Z,101599.53
2023-04-08T08:46:18.286Z,101605.66
2023-04-08T08:48:45.856Z,101609.97
2023-04-08T08:51:13.361Z,101601.28
2023-04-08T08:53:44.946Z,101607.41
2023-04-08T08:58:41.583Z,101616.09
2023-04-08T09:01:34.398Z,101619.59
2023-04-08T09:04:20.113Z,101619.59
2023-04-08T09:06:50.068Z,101620.44
2023-04-08T09:09:17.778Z,101618.72
2023-04-08T09:11:46.478Z,101609.16
2023-04-08T09:14:24.073Z,101618.69
2023-04-08T09:16:52.024Z,101617.84
2023-04-08T09:19:18.863Z,101628.28
2023-04-08T09:21:45.868Z,101623.97
2023-04-08T09:24:29.065Z,101627.53
2023-04-08T09:26:56.512Z,101624.94
2023-04-08T09:29:31.150Z,101627.56
2023-04-08T09:32:01.465Z,101631.94
2023-04-08T09:34:32.491Z,101631.97
2023-04-08T09:36:59.019Z,101638.09
2023-04-08T09:39:25.688Z,101639.91
2023-04-08T09:41:52.941Z,101644.25
2023-04-08T09:44:21.756Z,101651.22
2023-04-08T09:46:52.481Z,101651.22
2023-04-08T09:49:27.415Z,101651.19
2023-04-08T09:52:20.879Z,101660.75
2023-04-08T09:55:04.744Z,101659.09
2023-04-08T09:58:01.345Z,101659.97
2023-04-08T10:00:53.222Z,101655.56
2023-04-08T10:03:40.904Z,101658.19
2023-04-08T10:06:10.405Z,101662.53
2023-04-08T10:08:37.014Z,101658.25
2023-04-08T10:11:03.637Z,101657.41
2023-04-08T10:13:30.505Z,101660.06
2023-04-08T10:16:27.641Z,101656.59
2023-04-08T10:18:58.095Z,101663.53
2023-04-08T10:21:31.544Z,101659.16
2023-04-08T10:24:00.922Z,101648.72
2023-04-08T10:26:33.623Z,101657.44
2023-04-08T10:29:18.639Z,101665.25
2023-04-08T10:31:46.270Z,101665.28
2023-04-08T10:34:19.976Z,101669.63
2023-04-08T10:36:46.870Z,101672.28
2023-04-08T10:39:14.690Z,101680.13
2023-04-08T10:41:49.492Z,101668.78
2023-04-08T10:44:21.276Z,101669.66
2023-04-08T10:46:49.462Z,101667.06
2023-04-08T10:49:17.442Z,101656.63
2023-04-08T10:51:44.845Z,101654.88
2023-04-08T10:54:13.671Z,101658.38
2023-04-08T10:56:46.612Z,101658.34
2023-04-08T10:59:16.851Z,101653.97
2023-04-08T11:01:45.329Z,101660.09
2023-04-08T11:04:18.443Z,101659.22
2023-04-08T11:06:47.369Z,101667.94
2023-04-08T11:09:14.417Z,101658.34
2023-04-08T11:11:45.287Z,101658.34
2023-04-08T11:14:12.923Z,101657.47
2023-04-08T11:16:39.609Z,101661.84
2023-04-08T11:19:07.694Z,101660.97
2023-04-08T11:21:37.565Z,101652.25
2023-04-08T11:24:10.019Z,101664.44
2023-04-08T11:26:37.292Z,101660.13
2023-04-08T11:29:04.433Z,101673.19
2023-04-08T11:31:34.575Z,101672.28
2023-04-08T11:34:01.167Z,101672.31
2023-04-08T11:36:30.046Z,101674.06
2023-04-08T11:38:57.005Z,101669.72
2023-04-08T11:41:23.825Z,101670.59
2023-04-08T11:43:55.157Z,101664.47
2023-04-08T11:46:22.324Z,101660.97
2023-04-08T11:49:06.547Z,101668.81
2023-04-08T11:51:34.810Z,101666.22
2023-04-08T11:54:06.539Z,101669.69
2023-04-08T11:56:44.906Z,101668.84
2023-04-08T11:59:11.470Z,101665.31
2023-04-08T12:01:38.029Z,101672.31
2023-04-08T12:04:05.759Z,101664.47
2023-04-08T12:06:32.349Z,101665.34
2023-04-08T12:08:59.759Z,101672.31
2023-04-08T12:11:26.309Z,101671.41
2023-04-08T12:13:53.272Z,101673.16
2023-04-08T12:16:20.625Z,101674.91
2023-04-08T12:18:47.668Z,101688.84
2023-04-08T12:21:14.219Z,101682.72
2023-04-08T12:23:40.726Z,101677.50
2023-04-08T12:26:07.980Z,101679.25
2023-04-08T12:28:37.306Z,101684.47
2023-04-08T12:31:04.121Z,101683.63
2023-04-08T12:33:31.315Z,101684.50
2023-04-08T12:35:59.106Z,101686.22
2023-04-08T12:38:27.067Z,101681.88
2023-04-08T12:40:54.007Z,101689.75
2023-04-08T12:43:21.009Z,101681.03
2023-04-08T12:45:48.997Z,101692.34
2023-04-08T12:48:15.589Z,101692.38
2023-04-08T12:50:42.167Z,101684.50
2023-04-08T12:53:08.707Z,101681.91
2023-04-08T12:55:35.292Z,101679.28
2023-04-08T12:58:01.808Z,101684.50
2023-04-08T13:00:28.291Z,101670.56
2023-04-08T13:02:54.868Z,101672.31
2023-04-08T13:05:29.473Z,101679.25
2023-04-08T13:07:59.546Z,101676.66
2023-04-08T13:10:26.613Z,101673.16
2023-04-08T13:12:53.256Z,101682.75
2023-04-08T13:15:19.813Z,101679.28
2023-04-08T13:17:46.271Z,101670.56
2023-04-08T13:20:12.748Z,101671.41
2023-04-08T13:22:41.259Z,101673.94
2023-04-08T13:25:08.058Z,101668.63
2023-04-08T13:27:34.516Z,101666.81
2023-04-08T13:30:01.194Z,101671.22
2023-04-08T13:32:27.725Z,101675.66
2023-04-08T13:34:54.273Z,101665.22
2023-04-08T13:37:20.724Z,101656.41
2023-04-08T13:39:47.201Z,101659.81
2023-04-08T13:42:13.636Z,101673.66
2023-04-08T13:44:40.117Z,101662.41
2023-04-08T13:47:06.546Z,101659.84
2023-04-08T13:49:32.971Z,101666.03
2023-04-08T13:51:59.515Z,101654.72
2023-04-08T13:54:26.028Z,101657.38
2023-04-08T13:56:52.596Z,101658.28
2023-04-08T13:59:19.044Z,101660.03
2023-04-08T14:01:45.633Z,101653.03
2023-04-08T14:04:12.153Z,101657.41
2023-04-08T14:06:38.654Z,101642.53
2023-04-08T14:09:05.232Z,101658.28
2023-04-08T14:11:31.789Z,101651.28
2023-04-08T14:13:58.263Z,101653.94
2023-04-08T14:16:25.035Z,101643.41
2023-04-08T14:18:51.866Z,101651.25
2023-04-08T14:21:18.737Z,101641.56
2023-04-08T14:23:45.525Z,101650.31
2023-04-08T14:26:12.099Z,101640.72
2023-04-08T14:28:38.584Z,101645.13
2023-04-08T14:31:06.189Z,101634.66
2023-04-08T14:33:33.097Z,101643.38
2023-04-08T14:36:00.204Z,101645.94
2023-04-08T14:38:26.813Z,101638.13
2023-04-08T14:40:54.633Z,101640.72
2023-04-08T14:43:24.053Z,101634.66
2023-04-08T14:45:51.734Z,101643.41
2023-04-08T14:48:19.373Z,101645.16
2023-04-08T14:50:46.232Z,101639.94
2023-04-08T14:53:12.656Z,101637.25
2023-04-08T14:55:39.176Z,101637.22
2023-04-08T14:58:05.811Z,101640.72
2023-04-08T15:00:32.331Z,101634.63
2023-04-08T15:02:59.191Z,101638.97
2023-04-08T15:05:25.745Z,101638.13
2023-04-08T15:07:52.512Z,101645.09
2023-04-08T15:10:18.996Z,101641.59
2023-04-08T15:12:45.678Z,101644.22
2023-04-08T15:15:12.209Z,101647.75
2023-04-08T15:17:38.760Z,101639.91
2023-04-08T15:20:05.861Z,101655.69
2023-04-08T15:22:32.551Z,101655.69
2023-04-08T15:24:58.997Z,101656.59
2023-04-08T15:27:25.507Z,101654.81
2023-04-08T15:29:52.382Z,101659.19
2023-04-08T15:32:18.931Z,101662.66
2023-04-08T15:34:45.443Z,101656.56
2023-04-08T15:37:11.879Z,101660.03
2023-04-08T15:39:38.356Z,101655.66
2023-04-08T15:42:05.402Z,101658.31
2023-04-08T15:44:32.716Z,101654.81
2023-04-08T15:46:59.234Z,101659.22
2023-04-08T15:49:26.486Z,101654.81
2023-04-08T15:51:53.571Z,101655.72
2023-04-08T15:54:20.185Z,101659.19
2023-04-08T15:56:46.931Z,101661.84
2023-04-08T15:59:13.831Z,101659.19
2023-04-08T16:01:43.230Z,101657.44
2023-04-08T16:04:10.019Z,101665.28
2023-04-08T16:06:36.844Z,101664.44
2023-04-08T16:09:03.490Z,101662.69
2023-04-08T16:11:29.972Z,101664.44
2023-04-08T16:13:57.308Z,101658.34
2023-04-08T16:16:23.822Z,101657.47
2023-04-08T16:18:50.570Z,101660.97
2023-04-08T16:21:17.325Z,101659.22
2023-04-08T16:23:43.882Z,101648.72
2023-04-08T16:26:10.725Z,101660.06
2023-04-08T16:28:38.945Z,101652.22
2023-04-08T16:31:06.385Z,101653.09
2023-04-08T16:33:33.393Z,101665.31
2023-04-08T16:36:00.746Z,101661.81
2023-04-08T16:38:27.747Z,101665.31
2023-04-08T16:40:57.643Z,101670.53
2023-04-08T16:43:24.953Z,101664.47
2023-04-08T16:45:53.103Z,101666.19
2023-04-08T16:48:19.843Z,101671.44
2023-04-08T16:50:46.325Z,101665.31
2023-04-08T16:53:12.770Z,101667.06
2023-04-08T16:55:39.245Z,101664.47
2023-04-08T16:58:06.089Z,101660.09
2023-04-08T17:00:32.534Z,101660.13
2023-04-08T17:02:59.193Z,101660.09
2023-04-08T17:05:26.595Z,101656.59
2023-04-08T17:07:53.214Z,101661.84
2023-04-08T17:10:22.105Z,101660.97
2023-04-08T17:12:48.584Z,101663.59
2023-04-08T17:15:15.126Z,101657.47
2023-04-08T17:17:41.762Z,101657.50
2023-04-08T17:20:08.727Z,101659.22
2023-04-08T17:22:35.687Z,101654.88
2023-04-08T17:25:02.156Z,101655.75
2023-04-08T17:27:28.686Z,101656.63
2023-04-08T17:29:57.796Z,101655.75
2023-04-08T17:32:24.796Z,101665.34
2023-04-08T17:34:52.336Z,101652.28
2023-04-08T17:37:19.226Z,101660.09
2023-04-08T17:39:45.894Z,101661.00
2023-04-08T17:42:13.179Z,101661.84
2023-04-08T17:44:42.237Z,101662.72
2023-04-08T17:47:08.877Z,101670.56
2023-04-08T17:49:35.480Z,101660.09
2023-04-08T17:52:02.032Z,101670.53
2023-04-08T17:54:28.479Z,101665.31
2023-04-08T17:56:54.932Z,101676.66
2023-04-08T17:59:21.419Z,101671.44
2023-04-08T18:01:48.076Z,101674.88
2023-04-08T18:04:14.718Z,101681.00
2023-04-08T18:06:41.250Z,101678.34
2023-04-08T18:09:08.258Z,101687.97
2023-04-08T18:11:34.746Z,101688.81
2023-04-08T18:14:01.181Z,101687.06
2023-04-08T18:16:27.793Z,101687.09
2023-04-08T18:18:54.289Z,101694.03
2023-04-08T18:21:21.995Z,101699.25
2023-04-08T18:23:49.997Z,101697.50
2023-04-08T18:26:17.136Z,101700.97
2023-04-08T18:28:43.667Z,101696.63
2023-04-08T18:31:10.356Z,101705.34
2023-04-08T18:33:38.863Z,101704.47
2023-04-08T18:36:07.023Z,101706.22
2023-04-08T18:38:33.566Z,101710.56
2023-04-08T18:41:00.639Z,101714.06
2023-04-08T18:43:28.737Z,101709.69
2023-04-08T18:45:55.553Z,101714.06
2023-04-08T18:48:22.063Z,101706.22
2023-04-08T18:50:48.793Z,101714.06
2023-04-08T18:53:15.362Z,101715.81
2023-04-08T18:55:44.633Z,101719.28
2023-04-08T18:58:11.529Z,101712.28
2023-04-08T19:00:41.911Z,101714.91
2023-04-08T19:03:10.258Z,101714.91
2023-04-08T19:05:37.534Z,101715.75
2023-04-08T19:08:04.566Z,101716.59
2023-04-08T19:10:34.738Z,101720.06
2023-04-08T19:13:01.975Z,101721.81
2023-04-08T19:15:31.667Z,101713.06
2023-04-08T19:17:59.355Z,101719.19
2023-04-08T19:20:27.205Z,101713.06
2023-04-08T19:22:53.689Z,101714.78
2023-04-08T19:25:20.470Z,101720.03
2023-04-08T19:27:47.647Z,101723.50
2023-04-08T19:30:14.187Z,101723.50
2023-04-08T19:32:40.801Z,101717.41
2023-04-08T19:35:07.853Z,101716.50
2023-04-08T19:37:34.601Z,101724.31
2023-04-08T19:40:01.077Z,101716.50
2023-04-08T19:42:27.621Z,101720.81
2023-04-08T19:44:55.107Z,101723.41
2023-04-08T19:47:22.143Z,101721.66
2023-04-08T19:49:48.696Z,101728.59
2023-04-08T19:52:15.316Z,101723.38
2023-04-08T19:54:43.335Z,101732.06
2023-04-08T19:57:10.918Z,101737.28
2023-04-08T19:59:38.146Z,101725.97
2023-04-08T20:02:05.072Z,101733.75
2023-04-08T20:04:32.045Z,101741.59
2023-04-08T20:07:01.117Z,101742.44
2023-04-08T20:09:27.577Z,101739.78
2023-04-08T20:11:54.024Z,101743.28
2023-04-08T20:14:20.534Z,101745.88
2023-04-08T20:16:47.146Z,101745.88
2023-04-08T20:19:13.543Z,101744.09
2023-04-08T20:21:39.962Z,101741.47
2023-04-08T20:24:07.243Z,101744.09
2023-04-08T20:26:33.676Z,101745.00
2023-04-08T20:29:00.568Z,101745.88
2023-04-08T20:31:27.909Z,101745.00
2023-04-08T20:33:54.465Z,101743.19
2023-04-08T20:36:22.100Z,101741.38
2023-04-08T20:38:48.582Z,101741.38
2023-04-08T20:41:20.136Z,101736.16
2023-04-08T20:43:46.612Z,101739.63
2023-04-08T20:46:13.110Z,101734.38
2023-04-08T20:48:39.564Z,101739.56
2023-04-08T20:51:06.099Z,101732.63
2023-04-08T20:53:34.418Z,101734.34
2023-04-08T20:56:01.822Z,101730.88
2023-04-08T20:58:28.730Z,101730.88
2023-04-08T21:00:57.567Z,101722.19
2023-04-08T21:03:24.497Z,101732.59
2023-04-08T21:05:52.679Z,101738.69
2023-04-08T21:08:19.188Z,101730.00
2023-04-08T21:10:45.765Z,101721.31
2023-04-08T21:13:12.275Z,101733.47
2023-04-08T21:15:39.020Z,101735.16
2023-04-08T21:18:06.408Z,101729.06
2023-04-08T21:20:32.868Z,101736.09
2023-04-08T21:23:00.473Z,101736.09
2023-04-08T21:25:26.895Z,101736.97
2023-04-08T21:27:53.700Z,101728.31
2023-04-08T21:30:21.333Z,101736.16
2023-04-08T21:32:47.893Z,101734.41
2023-04-08T21:35:15.331Z,101735.31
2023-04-08T21:37:42.122Z,101737.91
2023-04-08T21:40:09.101Z,101739.66
2023-04-08T21:42:35.672Z,101739.66
2023-04-08T21:45:02.144Z,101743.13
2023-04-08T21:47:28.618Z,101740.53
2023-04-08T21:49:55.919Z,101740.50
2023-04-08T21:52:22.347Z,101740.50
2023-04-08T21:54:52.738Z,101744.84
2023-04-08T21:57:19.236Z,101742.34
2023-04-08T21:59:45.857Z,101745.81
2023-04-08T22:02:12.462Z,101745.81
2023-04-08T22:04:39.084Z,101744.09
2023-04-08T22:07:05.540Z,101745.00
2023-04-08T22:09:32.314Z,101745.00
2023-04-08T22:11:58.854Z,101741.53
2023-04-08T22:14:25.275Z,101735.44
2023-04-08T22:16:51.751Z,101741.53
2023-04-08T22:19:18.224Z,101742.41
2023-04-08T22:21:44.692Z,101743.25
2023-04-08T22:24:11.245Z,101738.91
2023-04-08T22:26:37.890Z,101739.78
2023-04-08T22:29:04.449Z,101742.38
2023-04-08T22:31:31.213Z,101746.69
2023-04-08T22:33:57.698Z,101737.13
2023-04-08T22:36:24.103Z,101735.38
2023-04-08T22:38:50.844Z,101736.25
2023-04-08T22:41:21.952Z,101736.25
2023-04-08T22:43:49.508Z,101735.38
2023-04-08T22:46:18.130Z,101742.34
2023-04-08T22:48:45.104Z,101737.13
2023-04-08T22:51:12.673Z,101741.47
2023-04-08T22:53:39.228Z,101744.00
2023-04-08T22:56:05.869Z,101737.03
2023-04-08T22:58:32.440Z,101736.16
2023-04-08T23:00:58.952Z,101737.91
2023-04-08T23:03:25.553Z,101737.03
2023-04-08T23:05:52.256Z,101738.75
2023-04-08T23:08:18.670Z,101737.88
2023-04-08T23:10:45.251Z,101728.28
2023-04-08T23:13:11.881Z,101731.75
2023-04-08T23:15:38.592Z,101733.50
2023-04-08T23:18:05.078Z,101733.47
2023-04-08T23:20:31.951Z,101723.91
2023-04-08T23:22:58.376Z,101724.78
2023-04-08T23:25:24.813Z,101721.31
2023-04-08T23:27:51.237Z,101725.66
2023-04-08T23:30:17.864Z,101730.00
2023-04-08T23:32:44.344Z,101725.59
2023-04-08T23:35:10.831Z,101722.09
2023-04-08T23:37:37.263Z,101726.44
2023-04-08T23:40:03.924Z,101738.56
2023-04-08T23:42:30.601Z,101729.00
2023-04-08T23:44:57.063Z,101723.78
2023-04-08T23:47:23.568Z,101727.31
2023-04-08T23:49:50.030Z,101717.72
2023-04-08T23:52:16.639Z,101729.00
2023-04-08T23:54:43.079Z,101735.03
2023-04-08T23:57:09.568Z,101722.84
2023-04-08T23:59:36.079Z,101721.09
